Time;durP1;ratioP1;P1;durP2;ratioP2;P2;SDS_P1;SDS_P2;PMS_P1;PMS_P2;Temp;Humidity;BMP_temperature;BMP_pressure;BME280_temperature;BME280_humidity;BME280_pressure;Samples;Min_cycle;Max_cycle;Signal;HPM_P1;HPM_P2
2022/01/13 05:01:47;;;;;;;31.63;13.25;;;5.50;99.90;;;;;;5323814;23;20339;-70
2022/01/13 05:04:13;;;;;;;32.78;12.77;;;5.60;99.90;;;;;;4952901;28;20248;-69
2022/01/13 05:06:40;;;;;;;39.60;18.25;;;5.50;99.90;;;;;;4953348;28;20213;-70
2022/01/13 05:09:07;;;;;;;34.17;13.50;;;5.60;99.90;;;;;;4952554;28;20216;-70
2022/01/13 05:11:33;;;;;;;45.72;16.65;;;5.60;99.90;;;;;;4952845;28;20236;-70
2022/01/13 05:14:00;;;;;;;41.78;16.10;;;5.60;99.90;;;;;;4953042;28;20654;-69
2022/01/13 05:16:33;;;;;;;41.85;16.35;;;5.50;99.90;;;;;;4953480;28;20205;-70
2022/01/13 05:19:13;;;;;;;31.63;15.50;;;5.60;99.90;;;;;;4952999;28;20201;-69
2022/01/13 05:21:55;;;;;;;32.90;14.40;;;5.60;99.90;;;;;;4953226;28;20249;-70
2022/01/13 05:24:22;;;;;;;34.00;15.38;;;5.50;99.90;;;;;;4955120;28;20743;-70
2022/01/13 05:26:48;;;;;;;35.13;14.43;;;5.60;99.90;;;;;;4968715;28;20208;-71
2022/01/13 05:29:18;;;;;;;34.90;15.50;;;5.60;99.90;;;;;;4961208;28;20244;-70
2022/01/13 05:31:45;;;;;;;29.85;15.25;;;5.60;99.90;;;;;;4950489;28;20224;-70
2022/01/13 05:34:13;;;;;;;31.30;14.00;;;5.60;99.90;;;;;;4952992;28;20205;-71
2022/01/13 05:36:40;;;;;;;39.72;16.17;;;5.60;99.90;;;;;;4953302;28;20614;-70
2022/01/13 05:39:07;;;;;;;35.85;15.15;;;5.60;99.90;;;;;;4952280;28;20229;-71
2022/01/13 05:41:34;;;;;;;38.45;14.93;;;5.60;99.90;;;;;;4951503;29;20256;-70
2022/01/13 05:44:01;;;;;;;31.55;13.10;;;5.60;99.90;;;;;;4952680;28;20228;-71
2022/01/13 05:46:27;;;;;;;40.58;16.17;;;5.60;99.90;;;;;;4953017;28;20262;-71
2022/01/13 05:48:54;;;;;;;40.33;14.05;;;5.60;99.90;;;;;;4952608;28;20321;-71
2022/01/13 05:51:22;;;;;;;33.20;12.93;;;5.60;99.90;;;;;;4952321;28;20679;-70
2022/01/13 05:53:49;;;;;;;29.00;14.73;;;5.60;99.90;;;;;;4952873;28;20201;-71
2022/01/13 05:56:16;;;;;;;36.22;14.98;;;5.60;99.90;;;;;;4951701;28;20292;-70
2022/01/13 05:58:43;;;;;;;34.63;14.25;;;5.60;99.90;;;;;;4952762;28;20205;-72
2022/01/13 06:01:10;;;;;;;30.98;14.32;;;5.60;99.90;;;;;;4952360;28;20237;-71
2022/01/13 06:03:36;;;;;;;31.15;12.13;;;5.60;99.90;;;;;;4952861;28;20693;-71
2022/01/13 06:06:03;;;;;;;28.00;12.80;;;5.60;99.90;;;;;;4952439;28;20213;-70
2022/01/13 06:08:31;;;;;;;27.95;13.35;;;5.60;99.90;;;;;;4952397;28;20225;-72
2022/01/13 06:10:58;;;;;;;29.08;13.38;;;5.60;99.90;;;;;;4951222;28;20240;-71
2022/01/13 06:13:25;;;;;;;29.67;13.30;;;5.60;99.90;;;;;;4951867;28;20193;-70
2022/01/13 06:15:51;;;;;;;27.27;12.43;;;5.70;99.90;;;;;;4952320;28;20213;-70
2022/01/13 06:18:18;;;;;;;28.08;13.55;;;5.60;99.90;;;;;;4952463;28;20208;-70
2022/01/13 06:20:45;;;;;;;32.33;13.23;;;5.70;99.90;;;;;;4951695;28;20280;-70
2022/01/13 06:23:15;;;;;;;31.42;15.30;;;5.70;99.90;;;;;;4953240;28;20232;-70
2022/01/13 06:25:43;;;;;;;32.03;14.25;;;5.70;99.90;;;;;;4970816;28;20279;-70
2022/01/13 06:28:09;;;;;;;41.10;13.90;;;5.80;99.90;;;;;;4952397;29;20546;-70
2022/01/13 06:30:36;;;;;;;31.73;14.18;;;5.80;99.90;;;;;;4946117;28;20233;-70
2022/01/13 06:33:04;;;;;;;31.02;13.13;;;5.70;99.90;;;;;;4949299;28;20264;-69
2022/01/13 06:35:30;;;;;;;31.58;13.35;;;5.80;99.90;;;;;;4968870;28;20271;-70
2022/01/13 06:37:57;;;;;;;32.17;14.95;;;5.70;99.90;;;;;;4951147;29;20579;-70
2022/01/13 06:40:24;;;;;;;36.72;15.38;;;5.70;99.90;;;;;;4951999;28;20549;-70
2022/01/13 06:42:53;;;;;;;27.65;13.82;;;5.80;99.90;;;;;;4951840;28;20388;-69
2022/01/13 06:45:19;;;;;;;30.60;13.50;;;5.80;99.90;;;;;;4969293;28;20327;-70
2022/01/13 06:47:46;;;;;;;30.75;13.40;;;5.80;99.90;;;;;;4956710;28;20218;-70
2022/01/13 06:50:13;;;;;;;33.53;13.55;;;5.80;99.90;;;;;;4951876;28;20267;-70
2022/01/13 06:52:39;;;;;;;29.88;13.60;;;5.80;99.90;;;;;;4951710;28;20260;-70
2022/01/13 06:55:07;;;;;;;31.40;15.30;;;5.80;99.90;;;;;;4952150;28;20205;-70
2022/01/13 06:57:34;;;;;;;29.42;13.75;;;5.80;99.90;;;;;;4951459;28;20658;-69
2022/01/13 07:00:03;;;;;;;32.15;14.30;;;5.80;99.90;;;;;;4951859;28;20264;-69
2022/01/13 07:02:31;;;;;;;27.40;14.57;;;5.80;99.90;;;;;;4951547;28;20287;-70
2022/01/13 07:04:57;;;;;;;30.27;14.38;;;5.80;99.90;;;;;;4951490;28;20316;-70
2022/01/13 07:07:34;;;;;;;28.73;13.32;;;5.80;99.90;;;;;;4951894;28;20264;-70
2022/01/13 07:10:00;;;;;;;31.08;12.13;;;5.80;99.90;;;;;;4949128;28;20205;-70
2022/01/13 07:12:27;;;;;;;38.88;16.25;;;5.80;99.90;;;;;;4949799;28;20470;-69
2022/01/13 07:14:54;;;;;;;34.50;14.10;;;5.80;99.90;;;;;;4950741;28;20209;-69
2022/01/13 07:17:22;;;;;;;30.10;15.05;;;5.80;99.90;;;;;;4951371;28;20582;-69
2022/01/13 07:19:51;;;;;;;41.58;16.38;;;5.90;99.90;;;;;;4949364;28;20206;-68
2022/01/13 07:22:18;;;;;;;39.10;15.77;;;5.80;99.90;;;;;;4951256;28;20329;-70
2022/01/13 07:24:45;;;;;;;30.63;14.30;;;5.90;99.90;;;;;;4950702;28;20272;-69
2022/01/13 07:27:12;;;;;;;38.38;14.85;;;5.90;99.90;;;;;;4947598;29;20586;-70
2022/01/13 07:29:39;;;;;;;31.85;15.13;;;5.90;99.90;;;;;;4954214;28;20210;-69
2022/01/13 07:32:07;;;;;;;32.38;14.80;;;5.90;99.90;;;;;;4954562;28;20244;-70
2022/01/13 07:34:35;;;;;;;32.97;15.13;;;5.90;99.90;;;;;;4954203;28;20208;-70
2022/01/13 07:37:01;;;;;;;30.40;14.75;;;5.90;99.90;;;;;;4954768;28;20213;-70
2022/01/13 07:39:28;;;;;;;33.15;13.80;;;5.90;99.90;;;;;;4953405;28;20213;-68
2022/01/13 07:41:55;;;;;;;33.53;14.07;;;5.80;99.90;;;;;;4952292;29;20224;-70
2022/01/13 07:44:21;;;;;;;40.83;14.77;;;5.90;99.90;;;;;;4951317;28;20233;-71
2022/01/13 07:46:48;;;;;;;29.38;15.07;;;5.90;99.90;;;;;;4949160;28;20201;-70
2022/01/13 07:49:15;;;;;;;38.13;16.48;;;5.90;99.90;;;;;;4967994;28;20212;-71
2022/01/13 07:51:43;;;;;;;34.85;14.35;;;5.90;99.90;;;;;;4955860;28;20237;-72
2022/01/13 07:54:10;;;;;;;34.85;15.55;;;5.90;99.90;;;;;;4949986;29;20205;-71
2022/01/13 07:56:37;;;;;;;29.98;14.45;;;5.90;99.90;;;;;;4953717;28;20733;-69
2022/01/13 07:59:03;;;;;;;37.13;17.48;;;5.90;99.90;;;;;;4953679;28;20647;-70
2022/01/13 08:01:30;;;;;;;30.52;14.75;;;5.90;99.90;;;;;;4956689;28;20240;-70
2022/01/13 08:03:57;;;;;;;35.20;15.27;;;5.90;99.90;;;;;;4953905;28;20233;-71
2022/01/13 08:06:23;;;;;;;31.15;15.60;;;5.90;99.90;;;;;;4954191;28;20546;-70
2022/01/13 08:08:51;;;;;;;39.05;14.43;;;5.90;99.90;;;;;;4953464;28;20205;-70
2022/01/13 08:11:18;;;;;;;36.75;17.58;;;5.90;99.90;;;;;;4957917;28;20251;-70
2022/01/13 08:13:46;;;;;;;43.72;16.52;;;5.90;99.90;;;;;;4950333;28;20209;-69
2022/01/13 08:16:16;;;;;;;34.95;15.85;;;5.90;99.90;;;;;;4945997;28;20217;-70
2022/01/13 08:21:27;;;;;;;35.47;14.18;;;5.90;99.90;;;;;;4940427;28;20232;-71
2022/01/13 08:23:55;;;;;;;44.08;21.98;;;6.00;99.90;;;;;;4950969;28;20616;-69
2022/01/13 08:26:21;;;;;;;36.05;16.30;;;6.00;99.90;;;;;;4949879;29;20209;-71
2022/01/13 08:28:48;;;;;;;37.38;16.45;;;6.00;99.90;;;;;;4951146;28;20209;-71
2022/01/13 08:31:15;;;;;;;41.03;17.95;;;6.00;99.90;;;;;;4953197;28;20238;-71
2022/01/13 08:33:42;;;;;;;35.85;16.17;;;6.00;99.90;;;;;;4953869;28;20217;-70
2022/01/13 08:36:08;;;;;;;33.80;15.55;;;6.00;99.90;;;;;;4953827;28;20205;-72
2022/01/13 08:38:35;;;;;;;31.50;14.90;;;6.00;99.90;;;;;;4954091;28;20733;-70
2022/01/13 08:41:04;;;;;;;26.55;14.45;;;6.00;99.90;;;;;;4958712;28;20221;-70
2022/01/13 08:43:33;;;;;;;36.92;14.77;;;6.00;99.90;;;;;;4953460;28;20222;-68
2022/01/13 08:45:59;;;;;;;34.97;16.38;;;6.00;99.90;;;;;;4952442;28;20216;-68
2022/01/13 08:48:26;;;;;;;32.22;14.60;;;6.00;99.90;;;;;;4953371;28;20209;-70
2022/01/13 08:50:53;;;;;;;32.72;14.52;;;6.00;99.90;;;;;;4952853;28;20228;-71
2022/01/13 08:53:20;;;;;;;29.83;14.23;;;6.00;99.90;;;;;;4947459;28;20213;-69
2022/01/13 08:55:48;;;;;;;33.70;14.00;;;6.00;99.90;;;;;;4952287;28;20209;-70
2022/01/13 08:58:16;;;;;;;34.78;14.32;;;6.00;99.90;;;;;;4953621;28;20213;-70
2022/01/13 09:00:43;;;;;;;32.83;15.15;;;6.00;99.90;;;;;;4952990;28;20236;-69
2022/01/13 09:03:09;;;;;;;31.02;14.80;;;6.00;99.90;;;;;;4953515;28;20209;-70
2022/01/13 09:05:37;;;;;;;33.25;15.02;;;6.00;99.90;;;;;;4953112;28;20308;-71
2022/01/13 09:08:05;;;;;;;32.50;15.00;;;6.00;99.90;;;;;;4935362;28;20644;-71
2022/01/13 09:10:32;;;;;;;41.13;16.08;;;6.00;99.90;;;;;;4956307;28;20311;-69
2022/01/13 09:12:59;;;;;;;30.50;14.32;;;6.00;99.90;;;;;;4956457;28;20206;-70
2022/01/13 09:15:36;;;;;;;26.90;14.05;;;6.00;99.90;;;;;;4938209;29;20210;-71
2022/01/13 09:18:09;;;;;;;32.80;13.93;;;6.00;99.90;;;;;;4934075;29;20283;-71
2022/01/13 09:20:37;;;;;;;34.70;14.68;;;6.00;99.90;;;;;;4953495;28;20240;-71
2022/01/13 09:23:03;;;;;;;35.45;16.42;;;6.00;99.90;;;;;;4972681;28;20212;-70
2022/01/13 09:25:30;;;;;;;33.88;15.00;;;6.00;99.90;;;;;;4971452;28;20235;-71
2022/01/13 09:27:57;;;;;;;27.20;13.90;;;6.00;99.90;;;;;;4972057;28;20255;-70
2022/01/13 09:30:24;;;;;;;36.28;15.30;;;6.00;99.90;;;;;;4969708;28;20240;-70
2022/01/13 09:32:52;;;;;;;30.80;13.85;;;6.00;99.90;;;;;;4972033;28;20209;-70
2022/01/13 09:35:19;;;;;;;29.20;13.77;;;6.00;99.90;;;;;;4971889;28;20200;-71
2022/01/13 09:37:45;;;;;;;39.55;15.00;;;6.00;99.90;;;;;;4972128;28;20204;-70
2022/01/13 09:40:13;;;;;;;33.75;15.45;;;6.00;99.90;;;;;;4964123;28;20220;-70
2022/01/13 09:42:42;;;;;;;30.75;15.38;;;6.00;99.90;;;;;;4948732;28;20708;-70
2022/01/13 09:45:12;;;;;;;27.63;12.82;;;6.00;99.90;;;;;;4952280;28;20217;-69
2022/01/13 09:47:40;;;;;;;36.80;14.85;;;6.00;99.90;;;;;;4952297;28;20260;-71
2022/01/13 09:50:13;;;;;;;29.58;14.23;;;6.00;99.90;;;;;;4950270;28;20213;-71
2022/01/13 09:52:42;;;;;;;38.03;17.55;;;6.00;99.90;;;;;;4944571;29;20220;-71
2022/01/13 09:55:11;;;;;;;32.22;15.30;;;6.00;99.90;;;;;;4952015;28;20217;-70
2022/01/13 09:57:42;;;;;;;40.83;16.70;;;6.00;99.90;;;;;;4951912;28;20212;-70
2022/01/13 10:00:10;;;;;;;40.70;16.15;;;6.00;99.90;;;;;;4952076;28;20209;-70
2022/01/13 10:02:37;;;;;;;31.58;15.02;;;6.00;99.90;;;;;;4951617;28;20236;-71
2022/01/13 10:05:04;;;;;;;31.15;14.77;;;6.00;99.90;;;;;;4952253;28;20240;-70
2022/01/13 10:07:35;;;;;;;29.73;15.05;;;6.00;99.90;;;;;;4952510;28;20213;-70
2022/01/13 10:10:04;;;;;;;33.72;16.35;;;5.90;99.90;;;;;;4955833;28;20212;-71
2022/01/13 10:12:37;;;;;;;31.83;14.57;;;5.90;99.90;;;;;;4959021;28;20592;-71
2022/01/13 10:17:52;;;;;;;37.80;17.65;;;5.90;99.90;;;;;;4952178;29;20693;-68
2022/01/13 10:20:22;;;;;;;30.42;13.68;;;6.00;99.90;;;;;;4958669;28;20216;-69
2022/01/13 10:22:50;;;;;;;35.05;15.00;;;5.90;99.90;;;;;;4971585;28;20204;-70
2022/01/13 10:25:29;;;;;;;37.92;14.60;;;5.90;99.90;;;;;;4970767;28;20596;-70
2022/01/13 10:27:57;;;;;;;30.27;15.10;;;5.90;99.90;;;;;;4971285;28;20237;-70
2022/01/13 10:30:25;;;;;;;35.58;15.93;;;5.90;99.90;;;;;;4962797;28;20216;-71
2022/01/13 10:32:53;;;;;;;26.40;12.93;;;5.90;99.90;;;;;;4945705;29;20285;-71
2022/01/13 10:35:22;;;;;;;26.88;14.05;;;5.90;99.90;;;;;;4952140;28;20368;-71
2022/01/13 10:37:54;;;;;;;32.08;14.23;;;5.90;99.90;;;;;;4952289;28;20217;-71
2022/01/13 10:40:24;;;;;;;29.23;14.32;;;5.90;99.90;;;;;;4951752;28;20325;-71
2022/01/13 10:43:09;;;;;;;28.10;13.57;;;5.90;99.90;;;;;;4963096;28;20208;-70
2022/01/13 10:45:39;;;;;;;19.60;13.23;;;6.00;99.90;;;;;;4971226;28;20247;-71
2022/01/13 10:48:09;;;;;;;22.67;13.35;;;6.00;99.90;;;;;;4971191;28;20240;-70
2022/01/13 10:50:40;;;;;;;25.20;13.82;;;6.00;99.90;;;;;;4962118;28;20228;-70
2022/01/13 10:53:10;;;;;;;25.05;13.10;;;6.00;99.90;;;;;;4951098;28;20213;-69
2022/01/13 10:55:40;;;;;;;28.60;13.90;;;6.00;99.90;;;;;;4951642;28;20201;-70
2022/01/13 10:58:07;;;;;;;35.35;15.15;;;6.00;99.90;;;;;;4955697;28;20213;-71
2022/01/13 11:00:35;;;;;;;30.85;16.23;;;6.00;99.90;;;;;;4957218;28;20360;-69
2022/01/13 11:03:06;;;;;;;34.33;15.60;;;6.00;99.90;;;;;;4961467;28;20308;-70
2022/01/13 11:05:35;;;;;;;31.20;16.02;;;6.00;99.90;;;;;;4956813;28;20304;-66
2022/01/13 11:08:05;;;;;;;26.88;14.65;;;6.00;99.90;;;;;;4954437;28;20312;-64
2022/01/13 11:10:34;;;;;;;28.80;14.98;;;6.10;99.90;;;;;;4952885;28;20228;-69
2022/01/13 11:13:03;;;;;;;34.20;15.73;;;6.10;99.90;;;;;;4954805;29;20209;-70
2022/01/13 11:15:30;;;;;;;24.58;12.75;;;6.10;99.90;;;;;;4955357;28;20197;-69
2022/01/13 11:17:59;;;;;;;29.55;13.68;;;6.10;99.90;;;;;;4954689;28;20204;-69
2022/01/13 11:20:27;;;;;;;26.67;15.02;;;6.10;99.90;;;;;;4954803;28;20206;-70
2022/01/13 11:22:57;;;;;;;32.17;14.35;;;6.10;99.90;;;;;;4954232;28;20209;-70
2022/01/13 11:25:26;;;;;;;27.10;15.25;;;6.10;99.90;;;;;;4954649;28;20335;-70
2022/01/13 11:27:57;;;;;;;26.25;14.02;;;6.10;99.90;;;;;;4954093;28;20209;-71
2022/01/13 11:30:28;;;;;;;26.33;13.50;;;6.10;99.90;;;;;;4959417;28;20205;-70
2022/01/13 11:32:56;;;;;;;26.75;14.85;;;6.10;99.90;;;;;;4955232;28;20357;-71
2022/01/13 11:35:26;;;;;;;28.17;14.70;;;6.10;99.90;;;;;;4954519;28;20197;-70
2022/01/13 11:37:56;;;;;;;27.40;14.57;;;6.10;99.90;;;;;;4954511;28;20229;-70
2022/01/13 11:40:37;;;;;;;27.75;16.17;;;6.10;99.90;;;;;;4954738;28;20288;-70
2022/01/13 11:43:07;;;;;;;31.73;15.77;;;6.20;99.90;;;;;;4942524;28;20208;-70
2022/01/13 11:45:40;;;;;;;33.00;15.55;;;6.20;99.90;;;;;;4954437;28;20584;-70
2022/01/13 11:48:17;;;;;;;29.80;13.80;;;6.20;99.90;;;;;;4952586;28;20240;-70
2022/01/13 11:50:48;;;;;;;25.90;14.80;;;6.20;99.90;;;;;;4948474;28;20228;-70
2022/01/13 11:53:27;;;;;;;32.65;16.55;;;6.20;99.90;;;;;;4954442;28;20679;-71
2022/01/13 11:55:57;;;;;;;30.77;15.95;;;6.20;99.90;;;;;;4953106;28;20208;-70
2022/01/13 11:58:31;;;;;;;28.98;17.33;;;6.20;99.90;;;;;;4950917;28;20213;-70
2022/01/13 12:01:09;;;;;;;25.48;14.18;;;6.20;99.90;;;;;;4953187;28;20224;-69
2022/01/13 12:03:37;;;;;;;29.27;15.48;;;6.20;99.90;;;;;;4954722;28;20682;-70
2022/01/13 12:06:05;;;;;;;29.45;15.93;;;6.20;99.90;;;;;;4953457;28;20784;-70
2022/01/13 12:08:45;;;;;;;29.52;16.55;;;6.20;99.90;;;;;;4954732;28;20205;-70
2022/01/13 12:11:44;;;;;;;24.83;13.90;;;6.20;99.90;;;;;;4952249;28;20293;-70
2022/01/13 12:14:42;;;;;;;26.85;13.02;;;6.20;99.90;;;;;;4954138;28;20768;-69
2022/01/13 12:17:23;;;;;;;26.42;14.82;;;6.20;99.90;;;;;;4954019;28;20305;-69
2022/01/13 12:19:59;;;;;;;23.45;14.48;;;6.20;99.90;;;;;;4947708;28;20213;-71
2022/01/13 12:22:40;;;;;;;22.00;12.10;;;6.20;99.90;;;;;;4952607;29;20669;-68
2022/01/13 12:25:09;;;;;;;23.52;13.13;;;6.20;99.90;;;;;;4967497;23;20324;-69
2022/01/13 12:27:50;;;;;;;25.05;15.75;;;6.30;99.90;;;;;;4934564;29;20213;-69
2022/01/13 12:30:25;;;;;;;28.10;14.50;;;6.30;99.90;;;;;;4933135;29;20202;-69
2022/01/13 12:32:53;;;;;;;25.00;14.18;;;6.20;99.90;;;;;;4930079;29;20225;-69
2022/01/13 12:35:41;;;;;;;25.20;12.55;;;6.20;99.90;;;;;;4924870;29;20241;-68
2022/01/13 12:38:09;;;;;;;29.40;12.50;;;6.20;99.90;;;;;;4916076;29;20215;-68
2022/01/13 12:40:41;;;;;;;29.80;13.82;;;6.20;99.90;;;;;;4918964;29;21030;-69
2022/01/13 12:43:34;;;;;;;20.45;12.73;;;6.20;99.90;;;;;;4916819;29;20271;-69
2022/01/13 12:46:03;;;;;;;19.63;12.98;;;6.30;99.90;;;;;;4929690;29;20226;-69
2022/01/13 12:48:30;;;;;;;22.80;12.05;;;6.30;99.90;;;;;;4916702;29;20207;-69
2022/01/13 12:50:59;;;;;;;26.15;13.43;;;6.20;99.90;;;;;;4928636;29;20210;-68
2022/01/13 12:53:28;;;;;;;19.42;12.13;;;6.20;99.90;;;;;;4923756;29;20214;-68
2022/01/13 12:55:58;;;;;;;27.00;15.20;;;6.20;99.90;;;;;;4925874;29;20206;-69
2022/01/13 12:58:27;;;;;;;31.95;15.30;;;6.20;99.90;;;;;;4929185;29;20261;-68
2022/01/13 13:00:57;;;;;;;20.33;12.63;;;6.30;99.90;;;;;;4920199;29;20207;-68
2022/01/13 13:03:25;;;;;;;24.10;11.75;;;6.20;99.90;;;;;;4928107;29;20214;-68
2022/01/13 13:05:53;;;;;;;28.48;16.40;;;6.30;99.90;;;;;;4931754;29;20765;-69
2022/01/13 13:08:22;;;;;;;22.25;13.65;;;6.30;99.90;;;;;;4931608;29;20210;-69
2022/01/13 13:10:51;;;;;;;28.23;16.33;;;6.30;99.90;;;;;;4920108;29;20253;-69
2022/01/13 13:13:19;;;;;;;20.10;12.25;;;6.30;99.90;;;;;;4927901;29;20682;-69
2022/01/13 13:15:57;;;;;;;21.73;13.00;;;6.30;99.90;;;;;;4933408;29;20599;-68
2022/01/13 13:18:27;;;;;;;22.00;12.82;;;6.30;99.90;;;;;;4916630;29;20538;-69
2022/01/13 13:20:55;;;;;;;24.02;11.40;;;6.30;99.90;;;;;;4914877;29;20210;-71
2022/01/13 13:23:25;;;;;;;22.15;11.70;;;6.30;99.90;;;;;;4933349;29;20205;-68
2022/01/13 13:25:54;;;;;;;20.33;14.13;;;6.30;99.90;;;;;;4933512;29;20586;-68
2022/01/13 13:28:36;;;;;;;16.42;12.13;;;6.30;99.90;;;;;;4922526;29;20543;-69
2022/01/13 13:31:05;;;;;;;21.08;12.73;;;6.30;99.90;;;;;;4927255;29;20252;-69
2022/01/13 13:33:40;;;;;;;23.73;12.18;;;6.40;99.90;;;;;;4925525;29;20221;-69
2022/01/13 13:36:09;;;;;;;19.65;11.90;;;6.40;99.90;;;;;;4926950;29;20296;-69
2022/01/13 13:38:58;;;;;;;16.80;11.45;;;6.30;99.90;;;;;;4922686;29;20215;-68
2022/01/13 13:41:27;;;;;;;24.92;14.20;;;6.40;99.90;;;;;;4915218;29;20211;-68
2022/01/13 13:43:54;;;;;;;21.13;11.20;;;6.40;99.90;;;;;;4914789;29;20231;-68
2022/01/13 13:46:22;;;;;;;23.00;13.07;;;6.40;99.90;;;;;;4929167;29;20287;-67
2022/01/13 13:48:50;;;;;;;22.25;11.35;;;6.40;99.90;;;;;;4926047;29;20198;-68
2022/01/13 13:51:19;;;;;;;19.23;12.07;;;6.40;99.90;;;;;;4926203;29;20661;-69
2022/01/13 13:54:06;;;;;;;19.92;11.27;;;6.40;99.90;;;;;;4922934;29;20229;-69
2022/01/13 13:56:37;;;;;;;19.02;12.20;;;6.40;99.90;;;;;;4922892;29;20216;-69
2022/01/13 13:59:04;;;;;;;21.65;12.73;;;6.40;99.90;;;;;;4929447;29;20238;-69
2022/01/13 14:01:31;;;;;;;21.98;12.63;;;6.40;99.90;;;;;;4914085;29;20215;-69
2022/01/13 14:03:59;;;;;;;20.65;12.50;;;6.40;99.90;;;;;;4932594;29;20241;-69
2022/01/13 14:06:40;;;;;;;20.95;11.90;;;6.40;99.90;;;;;;4932825;29;20221;-69
2022/01/13 14:09:07;;;;;;;19.23;11.63;;;6.40;99.90;;;;;;4921660;29;20265;-69
2022/01/13 14:11:43;;;;;;;21.17;12.20;;;6.40;99.90;;;;;;4914113;29;20258;-69
2022/01/13 14:14:11;;;;;;;25.13;13.05;;;6.30;99.90;;;;;;4919975;29;20289;-70
2022/01/13 14:16:37;;;;;;;25.23;12.13;;;6.40;99.90;;;;;;4933557;29;20248;-69
2022/01/13 14:19:08;;;;;;;23.63;12.13;;;6.30;99.90;;;;;;4924568;29;21192;-69
2022/01/13 14:21:49;;;;;;;23.27;12.18;;;6.30;99.90;;;;;;4932576;29;20261;-69
2022/01/13 14:24:27;;;;;;;24.73;12.77;;;6.30;99.90;;;;;;4931690;29;20256;-70
2022/01/13 14:26:53;;;;;;;26.15;14.15;;;6.30;99.90;;;;;;4931228;29;20218;-69
2022/01/13 14:29:22;;;;;;;22.15;13.40;;;6.30;99.90;;;;;;4914886;29;20210;-69
2022/01/13 14:31:49;;;;;;;23.77;14.23;;;6.30;99.90;;;;;;4912149;29;20206;-69
2022/01/13 14:34:26;;;;;;;21.42;12.80;;;6.30;99.90;;;;;;4912952;29;20246;-69
2022/01/13 14:36:54;;;;;;;20.20;12.50;;;6.30;99.90;;;;;;4925473;29;20213;-69
2022/01/13 14:39:22;;;;;;;18.02;11.50;;;6.30;99.90;;;;;;4928756;29;20214;-69
2022/01/13 14:41:48;;;;;;;25.48;13.45;;;6.30;99.90;;;;;;4928676;29;20578;-68
2022/01/13 14:44:19;;;;;;;20.40;12.40;;;6.30;99.90;;;;;;4924067;29;20238;-69
2022/01/13 14:46:51;;;;;;;19.85;12.55;;;6.30;99.90;;;;;;4934072;29;20347;-68
2022/01/13 14:49:25;;;;;;;27.50;14.35;;;6.30;99.90;;;;;;4918448;29;20214;-68
2022/01/13 14:51:53;;;;;;;26.73;13.88;;;6.30;99.90;;;;;;4934683;29;20296;-68
2022/01/13 14:54:21;;;;;;;23.05;14.10;;;6.30;99.90;;;;;;4935820;29;20738;-68
2022/01/13 14:56:48;;;;;;;23.92;13.18;;;6.30;99.90;;;;;;4935508;29;20213;-68
2022/01/13 14:59:15;;;;;;;23.25;13.80;;;6.40;99.90;;;;;;4936025;29;20209;-67
2022/01/13 15:01:43;;;;;;;28.08;13.77;;;6.40;99.90;;;;;;4936270;29;20217;-68
2022/01/13 15:04:10;;;;;;;27.38;14.13;;;6.40;99.90;;;;;;4931933;29;20555;-68
2022/01/13 15:06:38;;;;;;;33.72;15.38;;;6.40;99.90;;;;;;4924846;29;20230;-67
2022/01/13 15:09:05;;;;;;;27.50;15.30;;;6.40;99.90;;;;;;4928385;29;20273;-68
2022/01/13 15:11:32;;;;;;;22.58;14.55;;;6.40;99.90;;;;;;4931772;29;20214;-68
2022/01/13 15:13:59;;;;;;;24.55;14.15;;;6.40;99.90;;;;;;4931722;29;20312;-69
2022/01/13 15:16:25;;;;;;;28.27;14.48;;;6.40;99.90;;;;;;4917223;29;20202;-67
2022/01/13 15:18:58;;;;;;;27.77;14.73;;;6.40;99.90;;;;;;4931696;29;20206;-68
2022/01/13 15:21:28;;;;;;;43.40;19.20;;;6.40;99.90;;;;;;4935950;29;20224;-68
2022/01/13 15:23:56;;;;;;;28.52;15.15;;;6.40;99.90;;;;;;4935183;29;20238;-68
2022/01/13 15:26:24;;;;;;;29.98;15.18;;;6.40;99.90;;;;;;4935845;29;20230;-68
2022/01/13 15:28:51;;;;;;;29.25;15.13;;;6.50;99.90;;;;;;4930689;29;20210;-68
2022/01/13 15:31:18;;;;;;;27.20;16.80;;;6.50;99.90;;;;;;4916721;29;20214;-68
2022/01/13 15:33:45;;;;;;;28.02;15.60;;;6.40;99.90;;;;;;4931567;29;20273;-68
2022/01/13 15:36:12;;;;;;;28.30;16.50;;;6.50;99.90;;;;;;4935868;29;20290;-68
2022/01/13 15:38:38;;;;;;;23.05;14.68;;;6.50;99.90;;;;;;4925453;29;20218;-68
2022/01/13 15:41:06;;;;;;;28.88;15.02;;;6.50;99.90;;;;;;4934769;29;20210;-68
2022/01/13 15:43:34;;;;;;;25.00;16.45;;;6.50;99.90;;;;;;4925948;29;20211;-68
2022/01/13 15:46:01;;;;;;;28.25;16.60;;;6.50;99.90;;;;;;4931615;29;20225;-68
2022/01/13 15:48:28;;;;;;;35.50;17.40;;;6.50;99.90;;;;;;4926793;29;20680;-68
2022/01/13 15:50:56;;;;;;;32.10;17.33;;;6.60;99.90;;;;;;4923979;29;20207;-67
2022/01/13 15:53:23;;;;;;;33.25;17.50;;;6.50;99.90;;;;;;4928798;29;20666;-69
2022/01/13 15:55:50;;;;;;;32.15;16.77;;;6.60;99.90;;;;;;4934748;29;20228;-68
2022/01/13 15:58:24;;;;;;;25.23;16.08;;;6.60;99.90;;;;;;4933707;29;20504;-68
2022/01/13 16:00:51;;;;;;;30.98;17.58;;;6.60;99.90;;;;;;4920948;29;20210;-68
2022/01/13 16:03:18;;;;;;;26.17;14.80;;;6.60;99.90;;;;;;4927973;29;20202;-68
2022/01/13 16:05:45;;;;;;;31.55;19.50;;;6.60;99.90;;;;;;4926217;29;20234;-68
2022/01/13 16:08:12;;;;;;;34.47;15.13;;;6.60;99.90;;;;;;4925606;29;20240;-67
2022/01/13 16:10:38;;;;;;;26.33;15.25;;;6.70;99.90;;;;;;4919000;29;20206;-68
2022/01/13 16:13:05;;;;;;;29.23;14.63;;;6.70;99.90;;;;;;4933288;29;20206;-68
2022/01/13 16:15:33;;;;;;;31.08;15.02;;;6.70;99.90;;;;;;4917543;29;20321;-67
2022/01/13 16:18:00;;;;;;;27.33;15.77;;;6.70;99.90;;;;;;4922449;29;20284;-67
2022/01/13 16:20:29;;;;;;;30.20;16.00;;;6.70;99.90;;;;;;4934872;29;20206;-69
2022/01/13 16:22:56;;;;;;;41.28;16.02;;;6.70;99.90;;;;;;4930245;29;20209;-67
2022/01/13 16:25:23;;;;;;;30.10;15.70;;;6.70;99.90;;;;;;4918938;29;20955;-68
2022/01/13 16:27:53;;;;;;;30.20;17.17;;;6.70;99.90;;;;;;4921584;29;20369;-69
2022/01/13 16:30:22;;;;;;;27.83;16.05;;;6.70;99.90;;;;;;4924166;29;20216;-68
2022/01/13 16:32:52;;;;;;;29.65;16.05;;;6.70;99.90;;;;;;4915819;29;20310;-69
2022/01/13 16:35:20;;;;;;;29.83;15.65;;;6.70;99.90;;;;;;4931978;29;20653;-68
2022/01/13 16:37:49;;;;;;;24.83;16.20;;;6.80;99.90;;;;;;4929373;29;20696;-69
2022/01/13 16:40:17;;;;;;;27.35;15.77;;;6.80;99.90;;;;;;4924968;29;20962;-68
2022/01/13 16:42:48;;;;;;;36.17;15.88;;;6.80;99.90;;;;;;4928636;29;20217;-68
2022/01/13 16:45:17;;;;;;;34.42;14.73;;;6.80;99.90;;;;;;4919480;29;20226;-68
2022/01/13 16:47:43;;;;;;;26.02;15.55;;;6.80;99.90;;;;;;4926215;29;20229;-69
2022/01/13 16:50:14;;;;;;;26.05;15.25;;;6.80;99.90;;;;;;4934045;29;20210;-68
2022/01/13 16:52:41;;;;;;;21.60;14.60;;;6.80;99.90;;;;;;4916718;29;20225;-68
2022/01/13 16:55:09;;;;;;;26.17;15.07;;;6.80;99.90;;;;;;4925086;29;20240;-68
2022/01/13 16:57:36;;;;;;;28.40;14.75;;;6.80;99.90;;;;;;4925287;29;20206;-67
2022/01/13 17:00:04;;;;;;;28.95;15.35;;;6.80;99.90;;;;;;4913253;29;20568;-67
2022/01/13 17:02:31;;;;;;;30.95;14.55;;;6.80;99.90;;;;;;4921392;29;20224;-67
2022/01/13 17:04:58;;;;;;;24.48;14.07;;;6.80;99.90;;;;;;4926047;29;20273;-69
2022/01/13 17:07:26;;;;;;;25.85;15.60;;;6.80;99.90;;;;;;4922123;29;20317;-69
2022/01/13 17:09:53;;;;;;;25.63;15.48;;;6.80;99.90;;;;;;4917039;29;20643;-68
2022/01/13 17:12:19;;;;;;;25.48;15.55;;;6.80;99.90;;;;;;4917934;29;20677;-68
2022/01/13 17:14:46;;;;;;;25.35;15.30;;;6.80;99.90;;;;;;4922633;29;20329;-68
2022/01/13 17:17:13;;;;;;;25.02;14.93;;;6.90;99.90;;;;;;4915702;29;20211;-67
2022/01/13 17:19:40;;;;;;;25.50;14.45;;;6.90;99.90;;;;;;4925779;29;20545;-69
2022/01/13 17:22:07;;;;;;;26.33;15.52;;;6.90;99.90;;;;;;4912141;29;20217;-69
2022/01/13 17:24:37;;;;;;;25.13;16.30;;;6.90;99.90;;;;;;4914475;29;20321;-69
2022/01/13 17:27:04;;;;;;;30.77;17.20;;;6.90;99.90;;;;;;4918548;29;20222;-68
2022/01/13 17:29:31;;;;;;;24.00;14.55;;;6.90;99.90;;;;;;4921139;29;20719;-68
2022/01/13 17:31:57;;;;;;;30.40;15.98;;;6.90;99.90;;;;;;4922651;29;20265;-68
2022/01/13 17:34:24;;;;;;;29.38;16.58;;;6.90;99.90;;;;;;4917833;29;20567;-68
2022/01/13 17:36:51;;;;;;;22.45;15.25;;;6.90;99.90;;;;;;4920338;29;20198;-68
2022/01/13 17:39:18;;;;;;;32.42;17.30;;;6.90;99.90;;;;;;4916961;29;20307;-67
2022/01/13 17:41:47;;;;;;;31.33;17.30;;;6.90;99.90;;;;;;4920785;29;20639;-67
2022/01/13 17:44:16;;;;;;;27.08;17.58;;;6.90;99.90;;;;;;4922972;29;20285;-68
2022/01/13 17:46:43;;;;;;;28.65;16.83;;;6.90;99.90;;;;;;4928481;29;20340;-68
2022/01/13 17:49:09;;;;;;;31.00;17.23;;;6.90;99.90;;;;;;4929067;29;20209;-68
2022/01/13 17:51:36;;;;;;;32.92;17.80;;;6.90;99.90;;;;;;4929633;29;20296;-68